sensor_id;sensor_type;location;lat;lon;timestamp;P1;durP1;ratioP1;P2;durP2;ratioP2
19149;SDS011;9707;49.158;8.632;2024-01-11T00:00:18;23.10;;;16.15;;
19149;SDS011;9707;49.158;8.632;2024-01-11T00:02:44;24.73;;;16.52;;
19149;SDS011;9707;49.158;8.632;2024-01-11T00:05:09;23.88;;;16.00;;
19149;SDS011;9707;49.158;8.632;2024-01-11T00:07:35;25.63;;;15.82;;
19149;SDS011;9707;49.158;8.632;2024-01-11T00:10:01;23.67;;;15.93;;
19149;SDS011;9707;49.158;8.632;2024-01-11T00:12:27;23.17;;;16.15;;
19149;SDS011;9707;49.158;8.632;2024-01-11T00:14:52;24.60;;;15.55;;
19149;SDS011;9707;49.158;8.632;2024-01-11T00:17:18;21.92;;;14.85;;
19149;SDS011;9707;49.158;8.632;2024-01-11T00:19:43;25.13;;;16.08;;
19149;SDS011;9707;49.158;8.632;2024-01-11T00:22:08;24.25;;;15.30;;
19149;SDS011;9707;49.158;8.632;2024-01-11T00:24:33;23.88;;;14.70;;
19149;SDS011;9707;49.158;8.632;2024-01-11T00:26:59;24.83;;;16.38;;
19149;SDS011;9707;49.158;8.632;2024-01-11T00:29:24;20.58;;;14.05;;
19149;SDS011;9707;49.158;8.632;2024-01-11T00:31:49;25.95;;;16.88;;
19149;SDS011;9707;49.158;8.632;2024-01-11T00:34:15;27.05;;;16.95;;
19149;SDS011;9707;49.158;8.632;2024-01-11T00:36:40;26.80;;;17.30;;
19149;SDS011;9707;49.158;8.632;2024-01-11T00:39:05;24.77;;;16.00;;
19149;SDS011;9707;49.158;8.632;2024-01-11T00:41:30;26.00;;;16.15;;
19149;SDS011;9707;49.158;8.632;2024-01-11T00:43:56;27.20;;;16.80;;
19149;SDS011;9707;49.158;8.632;2024-01-11T00:46:21;26.77;;;16.95;;
19149;SDS011;9707;49.158;8.632;2024-01-11T00:48:46;27.58;;;18.42;;
19149;SDS011;9707;49.158;8.632;2024-01-11T00:51:11;25.52;;;17.00;;
19149;SDS011;9707;49.158;8.632;2024-01-11T00:53:37;24.10;;;16.27;;
19149;SDS011;9707;49.158;8.632;2024-01-11T00:56:02;25.25;;;17.20;;
19149;SDS011;9707;49.158;8.632;2024-01-11T00:58:28;27.77;;;16.52;;
19149;SDS011;9707;49.158;8.632;2024-01-11T01:00:53;24.27;;;16.45;;
19149;SDS011;9707;49.158;8.632;2024-01-11T01:03:22;27.60;;;16.92;;
19149;SDS011;9707;49.158;8.632;2024-01-11T01:05:47;23.33;;;16.08;;
19149;SDS011;9707;49.158;8.632;2024-01-11T01:08:13;27.45;;;17.55;;
19149;SDS011;9707;49.158;8.632;2024-01-11T01:10:38;24.17;;;16.02;;
19149;SDS011;9707;49.158;8.632;2024-01-11T01:13:04;23.27;;;15.63;;
19149;SDS011;9707;49.158;8.632;2024-01-11T01:15:29;22.98;;;15.48;;
19149;SDS011;9707;49.158;8.632;2024-01-11T01:17:54;23.50;;;15.93;;
19149;SDS011;9707;49.158;8.632;2024-01-11T01:20:20;23.75;;;14.82;;
19149;SDS011;9707;49.158;8.632;2024-01-11T01:22:45;20.58;;;15.52;;
19149;SDS011;9707;49.158;8.632;2024-01-11T01:25:10;24.10;;;16.60;;
19149;SDS011;9707;49.158;8.632;2024-01-11T01:27:35;23.75;;;15.80;;
19149;SDS011;9707;49.158;8.632;2024-01-11T01:30:01;23.67;;;15.43;;
19149;SDS011;9707;49.158;8.632;2024-01-11T01:32:26;22.27;;;15.55;;
19149;SDS011;9707;49.158;8.632;2024-01-11T01:34:51;26.17;;;15.52;;
19149;SDS011;9707;49.158;8.632;2024-01-11T01:37:16;24.45;;;15.85;;
19149;SDS011;9707;49.158;8.632;2024-01-11T01:39:42;23.48;;;15.15;;
19149;SDS011;9707;49.158;8.632;2024-01-11T01:42:07;23.20;;;15.55;;
19149;SDS011;9707;49.158;8.632;2024-01-11T01:44:33;26.95;;;16.77;;
19149;SDS011;9707;49.158;8.632;2024-01-11T01:46:58;21.75;;;14.18;;
19149;SDS011;9707;49.158;8.632;2024-01-11T01:49:24;22.33;;;15.88;;
19149;SDS011;9707;49.158;8.632;2024-01-11T01:51:49;22.30;;;15.73;;
19149;SDS011;9707;49.158;8.632;2024-01-11T01:54:18;22.88;;;15.38;;
19149;SDS011;9707;49.158;8.632;2024-01-11T01:56:44;22.17;;;14.82;;
19149;SDS011;9707;49.158;8.632;2024-01-11T01:59:09;22.73;;;14.57;;
19149;SDS011;9707;49.158;8.632;2024-01-11T02:01:35;23.20;;;15.00;;
19149;SDS011;9707;49.158;8.632;2024-01-11T02:04:01;18.45;;;12.38;;
19149;SDS011;9707;49.158;8.632;2024-01-11T02:06:26;24.65;;;16.05;;
19149;SDS011;9707;49.158;8.632;2024-01-11T02:08:54;24.05;;;15.43;;
19149;SDS011;9707;49.158;8.632;2024-01-11T02:11:21;23.40;;;15.68;;
19149;SDS011;9707;49.158;8.632;2024-01-11T02:13:49;23.75;;;15.43;;
19149;SDS011;9707;49.158;8.632;2024-01-11T02:16:15;24.13;;;15.85;;
19149;SDS011;9707;49.158;8.632;2024-01-11T02:18:40;23.10;;;16.20;;
19149;SDS011;9707;49.158;8.632;2024-01-11T02:21:06;22.05;;;15.38;;
19149;SDS011;9707;49.158;8.632;2024-01-11T02:23:34;24.38;;;16.60;;
19149;SDS011;9707;49.158;8.632;2024-01-11T02:26:05;22.00;;;14.15;;
19149;SDS011;9707;49.158;8.632;2024-01-11T02:28:30;26.67;;;16.40;;
19149;SDS011;9707;49.158;8.632;2024-01-11T02:30:56;22.23;;;15.88;;
19149;SDS011;9707;49.158;8.632;2024-01-11T02:33:21;23.02;;;15.18;;
19149;SDS011;9707;49.158;8.632;2024-01-11T02:35:47;21.30;;;14.32;;
19149;SDS011;9707;49.158;8.632;2024-01-11T02:38:13;23.67;;;15.30;;
19149;SDS011;9707;49.158;8.632;2024-01-11T02:40:38;19.95;;;12.38;;
19149;SDS011;9707;49.158;8.632;2024-01-11T02:43:08;19.23;;;13.15;;
19149;SDS011;9707;49.158;8.632;2024-01-11T02:45:35;22.73;;;14.50;;
19149;SDS011;9707;49.158;8.632;2024-01-11T02:48:00;23.65;;;15.75;;
19149;SDS011;9707;49.158;8.632;2024-01-11T02:50:26;25.10;;;15.27;;
19149;SDS011;9707;49.158;8.632;2024-01-11T02:52:51;22.88;;;15.02;;
19149;SDS011;9707;49.158;8.632;2024-01-11T02:55:16;23.23;;;15.65;;
19149;SDS011;9707;49.158;8.632;2024-01-11T02:57:42;22.80;;;15.70;;
19149;SDS011;9707;49.158;8.632;2024-01-11T03:00:07;24.90;;;15.75;;
19149;SDS011;9707;49.158;8.632;2024-01-11T03:02:33;22.98;;;15.70;;
19149;SDS011;9707;49.158;8.632;2024-01-11T03:04:58;23.45;;;15.15;;
19149;SDS011;9707;49.158;8.632;2024-01-11T03:07:23;24.35;;;15.15;;
19149;SDS011;9707;49.158;8.632;2024-01-11T03:09:48;25.90;;;15.80;;
19149;SDS011;9707;49.158;8.632;2024-01-11T03:12:13;24.02;;;14.63;;
19149;SDS011;9707;49.158;8.632;2024-01-11T03:14:39;24.85;;;14.27;;
19149;SDS011;9707;49.158;8.632;2024-01-11T03:17:04;22.17;;;14.32;;
19149;SDS011;9707;49.158;8.632;2024-01-11T03:19:30;20.75;;;14.63;;
19149;SDS011;9707;49.158;8.632;2024-01-11T03:21:55;19.75;;;13.23;;
19149;SDS011;9707;49.158;8.632;2024-01-11T03:24:20;18.27;;;13.73;;
19149;SDS011;9707;49.158;8.632;2024-01-11T03:26:47;22.65;;;15.52;;
19149;SDS011;9707;49.158;8.632;2024-01-11T03:29:12;21.27;;;15.02;;
19149;SDS011;9707;49.158;8.632;2024-01-11T03:31:38;24.65;;;14.85;;
19149;SDS011;9707;49.158;8.632;2024-01-11T03:34:06;23.95;;;15.77;;
19149;SDS011;9707;49.158;8.632;2024-01-11T03:36:32;21.60;;;14.68;;
19149;SDS011;9707;49.158;8.632;2024-01-11T03:38:57;21.60;;;13.95;;
19149;SDS011;9707;49.158;8.632;2024-01-11T03:41:22;22.42;;;14.80;;
19149;SDS011;9707;49.158;8.632;2024-01-11T03:43:48;23.58;;;14.75;;
19149;SDS011;9707;49.158;8.632;2024-01-11T03:46:14;23.33;;;14.77;;
19149;SDS011;9707;49.158;8.632;2024-01-11T03:48:39;20.83;;;14.30;;
19149;SDS011;9707;49.158;8.632;2024-01-11T03:51:05;25.05;;;14.82;;
19149;SDS011;9707;49.158;8.632;2024-01-11T03:53:34;20.27;;;14.80;;
19149;SDS011;9707;49.158;8.632;2024-01-11T03:56:00;18.27;;;12.93;;
19149;SDS011;9707;49.158;8.632;2024-01-11T03:58:26;20.60;;;13.15;;
19149;SDS011;9707;49.158;8.632;2024-01-11T04:00:51;21.63;;;14.65;;
19149;SDS011;9707;49.158;8.632;2024-01-11T04:03:17;22.63;;;14.70;;
19149;SDS011;9707;49.158;8.632;2024-01-11T04:05:42;26.50;;;15.75;;
19149;SDS011;9707;49.158;8.632;2024-01-11T04:08:07;24.33;;;15.48;;
19149;SDS011;9707;49.158;8.632;2024-01-11T04:10:32;22.95;;;14.45;;
19149;SDS011;9707;49.158;8.632;2024-01-11T04:12:58;24.48;;;15.30;;
19149;SDS011;9707;49.158;8.632;2024-01-11T04:15:23;20.70;;;13.00;;
19149;SDS011;9707;49.158;8.632;2024-01-11T04:17:48;20.00;;;13.52;;
19149;SDS011;9707;49.158;8.632;2024-01-11T04:20:13;20.17;;;12.38;;
19149;SDS011;9707;49.158;8.632;2024-01-11T04:22:39;19.98;;;12.00;;
19149;SDS011;9707;49.158;8.632;2024-01-11T04:25:04;18.98;;;13.18;;
19149;SDS011;9707;49.158;8.632;2024-01-11T04:27:30;17.98;;;11.25;;
19149;SDS011;9707;49.158;8.632;2024-01-11T04:29:56;21.00;;;14.15;;
19149;SDS011;9707;49.158;8.632;2024-01-11T04:32:21;18.95;;;11.98;;
19149;SDS011;9707;49.158;8.632;2024-01-11T04:34:46;19.48;;;13.38;;
19149;SDS011;9707;49.158;8.632;2024-01-11T04:37:11;24.15;;;14.23;;
19149;SDS011;9707;49.158;8.632;2024-01-11T04:39:37;22.02;;;14.98;;
19149;SDS011;9707;49.158;8.632;2024-01-11T04:42:02;24.75;;;16.58;;
19149;SDS011;9707;49.158;8.632;2024-01-11T04:44:28;22.27;;;15.40;;
19149;SDS011;9707;49.158;8.632;2024-01-11T04:46:53;18.98;;;11.20;;
19149;SDS011;9707;49.158;8.632;2024-01-11T04:49:18;22.77;;;15.30;;
19149;SDS011;9707;49.158;8.632;2024-01-11T04:51:43;22.05;;;14.60;;
19149;SDS011;9707;49.158;8.632;2024-01-11T04:54:09;23.08;;;15.35;;
19149;SDS011;9707;49.158;8.632;2024-01-11T04:56:34;21.23;;;14.80;;
19149;SDS011;9707;49.158;8.632;2024-01-11T04:58:59;22.95;;;15.15;;
19149;SDS011;9707;49.158;8.632;2024-01-11T05:01:24;21.98;;;15.25;;
19149;SDS011;9707;49.158;8.632;2024-01-11T05:03:50;24.42;;;15.73;;
19149;SDS011;9707;49.158;8.632;2024-01-11T05:06:16;19.85;;;13.75;;
19149;SDS011;9707;49.158;8.632;2024-01-11T05:08:42;23.05;;;15.10;;
19149;SDS011;9707;49.158;8.632;2024-01-11T05:11:14;25.50;;;15.10;;
19149;SDS011;9707;49.158;8.632;2024-01-11T05:13:40;21.67;;;14.30;;
19149;SDS011;9707;49.158;8.632;2024-01-11T05:16:05;23.13;;;14.63;;
19149;SDS011;9707;49.158;8.632;2024-01-11T05:18:31;23.80;;;15.32;;
19149;SDS011;9707;49.158;8.632;2024-01-11T05:20:56;23.02;;;15.55;;
19149;SDS011;9707;49.158;8.632;2024-01-11T05:23:21;20.05;;;13.20;;
19149;SDS011;9707;49.158;8.632;2024-01-11T05:25:46;25.75;;;15.52;;
19149;SDS011;9707;49.158;8.632;2024-01-11T05:28:12;21.85;;;14.15;;
19149;SDS011;9707;49.158;8.632;2024-01-11T05:30:37;21.90;;;14.45;;
19149;SDS011;9707;49.158;8.632;2024-01-11T05:33:02;22.42;;;14.38;;
19149;SDS011;9707;49.158;8.632;2024-01-11T05:35:27;21.90;;;15.00;;
19149;SDS011;9707;49.158;8.632;2024-01-11T05:37:53;22.45;;;14.55;;
19149;SDS011;9707;49.158;8.632;2024-01-11T05:40:20;16.95;;;11.00;;
19149;SDS011;9707;49.158;8.632;2024-01-11T05:42:46;21.75;;;13.38;;
19149;SDS011;9707;49.158;8.632;2024-01-11T05:45:11;20.95;;;14.35;;
19149;SDS011;9707;49.158;8.632;2024-01-11T05:47:36;22.70;;;14.55;;
19149;SDS011;9707;49.158;8.632;2024-01-11T05:50:02;19.95;;;13.00;;
19149;SDS011;9707;49.158;8.632;2024-01-11T05:52:27;23.08;;;15.60;;
19149;SDS011;9707;49.158;8.632;2024-01-11T05:54:52;22.50;;;15.57;;
19149;SDS011;9707;49.158;8.632;2024-01-11T05:57:18;20.58;;;14.35;;
19149;SDS011;9707;49.158;8.632;2024-01-11T05:59:43;24.77;;;15.95;;
19149;SDS011;9707;49.158;8.632;2024-01-11T06:02:10;25.35;;;15.55;;
19149;SDS011;9707;49.158;8.632;2024-01-11T06:04:36;23.20;;;14.25;;
19149;SDS011;9707;49.158;8.632;2024-01-11T06:07:01;23.70;;;15.57;;
19149;SDS011;9707;49.158;8.632;2024-01-11T06:09:26;25.35;;;14.93;;
19149;SDS011;9707;49.158;8.632;2024-01-11T06:11:51;21.52;;;13.52;;
19149;SDS011;9707;49.158;8.632;2024-01-11T06:14:18;24.58;;;16.08;;
19149;SDS011;9707;49.158;8.632;2024-01-11T06:16:44;22.15;;;14.23;;
19149;SDS011;9707;49.158;8.632;2024-01-11T06:19:09;25.48;;;16.45;;
19149;SDS011;9707;49.158;8.632;2024-01-11T06:21:34;25.75;;;16.77;;
19149;SDS011;9707;49.158;8.632;2024-01-11T06:23:59;24.10;;;16.15;;
19149;SDS011;9707;49.158;8.632;2024-01-11T06:26:25;23.77;;;15.80;;
19149;SDS011;9707;49.158;8.632;2024-01-11T06:28:50;25.88;;;16.42;;
19149;SDS011;9707;49.158;8.632;2024-01-11T06:31:15;24.33;;;15.07;;
19149;SDS011;9707;49.158;8.632;2024-01-11T06:33:40;23.52;;;15.50;;
19149;SDS011;9707;49.158;8.632;2024-01-11T06:36:06;23.17;;;14.55;;
19149;SDS011;9707;49.158;8.632;2024-01-11T06:38:34;27.65;;;16.45;;
19149;SDS011;9707;49.158;8.632;2024-01-11T06:41:00;25.38;;;16.98;;
19149;SDS011;9707;49.158;8.632;2024-01-11T06:43:25;24.20;;;15.30;;
19149;SDS011;9707;49.158;8.632;2024-01-11T06:45:50;28.10;;;16.65;;
19149;SDS011;9707;49.158;8.632;2024-01-11T06:48:15;23.98;;;15.88;;
19149;SDS011;9707;49.158;8.632;2024-01-11T06:50:41;24.33;;;15.05;;
19149;SDS011;9707;49.158;8.632;2024-01-11T06:53:06;23.48;;;15.27;;
19149;SDS011;9707;49.158;8.632;2024-01-11T06:55:32;23.92;;;16.35;;
19149;SDS011;9707;49.158;8.632;2024-01-11T06:57:57;23.92;;;15.95;;
19149;SDS011;9707;49.158;8.632;2024-01-11T07:00:22;30.77;;;20.38;;
19149;SDS011;9707;49.158;8.632;2024-01-11T07:02:48;27.08;;;18.35;;
19149;SDS011;9707;49.158;8.632;2024-01-11T07:05:13;25.75;;;18.77;;
19149;SDS011;9707;49.158;8.632;2024-01-11T07:07:38;27.83;;;19.23;;
19149;SDS011;9707;49.158;8.632;2024-01-11T07:10:04;23.35;;;16.20;;
19149;SDS011;9707;49.158;8.632;2024-01-11T07:12:30;29.00;;;19.90;;
19149;SDS011;9707;49.158;8.632;2024-01-11T07:14:56;27.23;;;18.98;;
19149;SDS011;9707;49.158;8.632;2024-01-11T07:17:21;26.27;;;18.13;;
19149;SDS011;9707;49.158;8.632;2024-01-11T07:19:47;28.73;;;17.92;;
19149;SDS011;9707;49.158;8.632;2024-01-11T07:22:13;30.25;;;18.80;;
19149;SDS011;9707;49.158;8.632;2024-01-11T07:24:38;28.13;;;18.80;;
19149;SDS011;9707;49.158;8.632;2024-01-11T07:27:04;30.00;;;19.92;;
19149;SDS011;9707;49.158;8.632;2024-01-11T07:29:30;32.08;;;19.60;;
19149;SDS011;9707;49.158;8.632;2024-01-11T07:31:55;27.23;;;18.15;;
19149;SDS011;9707;49.158;8.632;2024-01-11T07:34:21;27.52;;;17.83;;
19149;SDS011;9707;49.158;8.632;2024-01-11T07:36:46;26.00;;;17.83;;
19149;SDS011;9707;49.158;8.632;2024-01-11T07:39:11;25.27;;;17.08;;
19149;SDS011;9707;49.158;8.632;2024-01-11T07:41:37;23.85;;;16.60;;
19149;SDS011;9707;49.158;8.632;2024-01-11T07:44:02;31.63;;;19.73;;
19149;SDS011;9707;49.158;8.632;2024-01-11T07:46:28;25.10;;;17.33;;
19149;SDS011;9707;49.158;8.632;2024-01-11T07:48:53;26.90;;;16.70;;
19149;SDS011;9707;49.158;8.632;2024-01-11T07:51:19;22.63;;;15.85;;
19149;SDS011;9707;49.158;8.632;2024-01-11T07:53:45;22.52;;;14.23;;
19149;SDS011;9707;49.158;8.632;2024-01-11T07:56:10;24.45;;;15.43;;
19149;SDS011;9707;49.158;8.632;2024-01-11T07:58:35;20.15;;;13.32;;
19149;SDS011;9707;49.158;8.632;2024-01-11T08:01:02;22.08;;;14.88;;
19149;SDS011;9707;49.158;8.632;2024-01-11T08:03:28;22.50;;;15.35;;
19149;SDS011;9707;49.158;8.632;2024-01-11T08:05:54;26.15;;;16.52;;
19149;SDS011;9707;49.158;8.632;2024-01-11T08:08:20;22.42;;;15.23;;
19149;SDS011;9707;49.158;8.632;2024-01-11T08:10:47;23.58;;;14.82;;
19149;SDS011;9707;49.158;8.632;2024-01-11T08:13:13;20.10;;;14.18;;
19149;SDS011;9707;49.158;8.632;2024-01-11T08:15:38;24.98;;;15.18;;
19149;SDS011;9707;49.158;8.632;2024-01-11T08:18:04;26.05;;;17.13;;
19149;SDS011;9707;49.158;8.632;2024-01-11T08:20:30;24.38;;;16.02;;
19149;SDS011;9707;49.158;8.632;2024-01-11T08:22:55;23.00;;;14.93;;
19149;SDS011;9707;49.158;8.632;2024-01-11T08:25:21;30.45;;;16.58;;
19149;SDS011;9707;49.158;8.632;2024-01-11T08:27:47;24.98;;;16.35;;
19149;SDS011;9707;49.158;8.632;2024-01-11T08:30:13;21.50;;;15.55;;
19149;SDS011;9707;49.158;8.632;2024-01-11T08:32:38;25.88;;;17.50;;
19149;SDS011;9707;49.158;8.632;2024-01-11T08:35:05;29.05;;;19.17;;
19149;SDS011;9707;49.158;8.632;2024-01-11T08:37:31;23.10;;;15.13;;
19149;SDS011;9707;49.158;8.632;2024-01-11T08:39:57;35.38;;;21.75;;
19149;SDS011;9707;49.158;8.632;2024-01-11T08:42:22;32.30;;;20.52;;
19149;SDS011;9707;49.158;8.632;2024-01-11T08:44:48;35.35;;;21.27;;
19149;SDS011;9707;49.158;8.632;2024-01-11T08:47:13;30.60;;;20.10;;
19149;SDS011;9707;49.158;8.632;2024-01-11T08:49:39;28.65;;;19.02;;
19149;SDS011;9707;49.158;8.632;2024-01-11T08:52:04;28.85;;;17.77;;
19149;SDS011;9707;49.158;8.632;2024-01-11T08:54:30;23.05;;;16.17;;
19149;SDS011;9707;49.158;8.632;2024-01-11T08:56:57;26.33;;;15.75;;
19149;SDS011;9707;49.158;8.632;2024-01-11T08:59:22;25.17;;;17.13;;
19149;SDS011;9707;49.158;8.632;2024-01-11T09:01:50;23.40;;;16.55;;
19149;SDS011;9707;49.158;8.632;2024-01-11T09:04:15;30.05;;;19.45;;
19149;SDS011;9707;49.158;8.632;2024-01-11T09:06:42;31.92;;;21.45;;
19149;SDS011;9707;49.158;8.632;2024-01-11T09:09:08;25.75;;;18.15;;
19149;SDS011;9707;49.158;8.632;2024-01-11T09:11:35;25.00;;;16.75;;
19149;SDS011;9707;49.158;8.632;2024-01-11T09:14:00;27.35;;;18.52;;
19149;SDS011;9707;49.158;8.632;2024-01-11T09:16:27;25.05;;;18.02;;
19149;SDS011;9707;49.158;8.632;2024-01-11T09:18:53;24.80;;;16.38;;
19149;SDS011;9707;49.158;8.632;2024-01-11T09:21:18;25.23;;;16.90;;
19149;SDS011;9707;49.158;8.632;2024-01-11T09:23:43;28.05;;;19.98;;
19149;SDS011;9707;49.158;8.632;2024-01-11T09:26:09;28.10;;;17.98;;
19149;SDS011;9707;49.158;8.632;2024-01-11T09:28:34;26.63;;;17.20;;
19149;SDS011;9707;49.158;8.632;2024-01-11T09:30:59;28.83;;;19.00;;
19149;SDS011;9707;49.158;8.632;2024-01-11T09:33:25;27.52;;;17.05;;
19149;SDS011;9707;49.158;8.632;2024-01-11T09:35:51;26.67;;;17.67;;
19149;SDS011;9707;49.158;8.632;2024-01-11T09:38:16;27.85;;;18.20;;
19149;SDS011;9707;49.158;8.632;2024-01-11T09:40:41;32.90;;;20.02;;
19149;SDS011;9707;49.158;8.632;2024-01-11T09:43:06;29.73;;;19.50;;
19149;SDS011;9707;49.158;8.632;2024-01-11T09:45:34;29.77;;;19.42;;
19149;SDS011;9707;49.158;8.632;2024-01-11T09:48:01;29.73;;;20.55;;
19149;SDS011;9707;49.158;8.632;2024-01-11T09:50:27;32.08;;;19.25;;
19149;SDS011;9707;49.158;8.632;2024-01-11T09:52:54;36.47;;;21.63;;
19149;SDS011;9707;49.158;8.632;2024-01-11T09:55:19;31.17;;;20.52;;
19149;SDS011;9707;49.158;8.632;2024-01-11T09:57:45;30.92;;;20.45;;
19149;SDS011;9707;49.158;8.632;2024-01-11T10:00:16;30.90;;;19.73;;
19149;SDS011;9707;49.158;8.632;2024-01-11T10:02:47;32.13;;;20.20;;
19149;SDS011;9707;49.158;8.632;2024-01-11T10:05:12;31.85;;;19.42;;
19149;SDS011;9707;49.158;8.632;2024-01-11T10:07:39;29.77;;;20.33;;
19149;SDS011;9707;49.158;8.632;2024-01-11T10:10:04;31.60;;;19.33;;
19149;SDS011;9707;49.158;8.632;2024-01-11T10:12:32;29.25;;;19.50;;
19149;SDS011;9707;49.158;8.632;2024-01-11T10:15:05;31.63;;;19.98;;
19149;SDS011;9707;49.158;8.632;2024-01-11T10:17:42;33.17;;;19.83;;
19149;SDS011;9707;49.158;8.632;2024-01-11T10:20:12;31.02;;;19.58;;
19149;SDS011;9707;49.158;8.632;2024-01-11T10:22:39;29.80;;;20.35;;
19149;SDS011;9707;49.158;8.632;2024-01-11T10:25:12;31.98;;;20.95;;
19149;SDS011;9707;49.158;8.632;2024-01-11T10:27:40;29.08;;;19.45;;
19149;SDS011;9707;49.158;8.632;2024-01-11T10:30:09;27.90;;;18.33;;
19149;SDS011;9707;49.158;8.632;2024-01-11T10:32:38;34.30;;;20.30;;
19149;SDS011;9707;49.158;8.632;2024-01-11T10:35:03;31.52;;;20.10;;
19149;SDS011;9707;49.158;8.632;2024-01-11T10:37:30;27.20;;;18.08;;
19149;SDS011;9707;49.158;8.632;2024-01-11T10:39:57;31.23;;;19.40;;
19149;SDS011;9707;49.158;8.632;2024-01-11T10:42:24;31.23;;;19.58;;
19149;SDS011;9707;49.158;8.632;2024-01-11T10:44:52;32.00;;;17.85;;
19149;SDS011;9707;49.158;8.632;2024-01-11T10:47:20;27.40;;;18.25;;
19149;SDS011;9707;49.158;8.632;2024-01-11T10:49:49;29.95;;;18.77;;
19149;SDS011;9707;49.158;8.632;2024-01-11T10:52:17;30.95;;;20.05;;
19149;SDS011;9707;49.158;8.632;2024-01-11T10:54:47;33.00;;;22.13;;
19149;SDS011;9707;49.158;8.632;2024-01-11T10:57:14;30.58;;;20.45;;
19149;SDS011;9707;49.158;8.632;2024-01-11T10:59:41;32.38;;;21.90;;
19149;SDS011;9707;49.158;8.632;2024-01-11T11:02:08;31.45;;;20.23;;
19149;SDS011;9707;49.158;8.632;2024-01-11T11:04:38;31.58;;;19.48;;
19149;SDS011;9707;49.158;8.632;2024-01-11T11:07:05;31.25;;;19.55;;
19149;SDS011;9707;49.158;8.632;2024-01-11T11:09:32;27.92;;;19.10;;
19149;SDS011;9707;49.158;8.632;2024-01-11T11:12:00;31.83;;;19.60;;
19149;SDS011;9707;49.158;8.632;2024-01-11T11:14:25;30.17;;;19.48;;
19149;SDS011;9707;49.158;8.632;2024-01-11T11:16:52;30.33;;;18.83;;
19149;SDS011;9707;49.158;8.632;2024-01-11T11:19:19;29.98;;;18.55;;
19149;SDS011;9707;49.158;8.632;2024-01-11T11:21:45;29.27;;;18.50;;
19149;SDS011;9707;49.158;8.632;2024-01-11T11:24:12;25.98;;;17.25;;
19149;SDS011;9707;49.158;8.632;2024-01-11T11:26:38;27.20;;;18.90;;
19149;SDS011;9707;49.158;8.632;2024-01-11T11:29:03;28.45;;;18.40;;
19149;SDS011;9707;49.158;8.632;2024-01-11T11:31:41;29.58;;;19.52;;
19149;SDS011;9707;49.158;8.632;2024-01-11T11:34:10;30.27;;;19.17;;
19149;SDS011;9707;49.158;8.632;2024-01-11T11:36:36;30.45;;;18.13;;
19149;SDS011;9707;49.158;8.632;2024-01-11T11:39:02;27.30;;;17.70;;
19149;SDS011;9707;49.158;8.632;2024-01-11T11:41:27;29.70;;;19.30;;
19149;SDS011;9707;49.158;8.632;2024-01-11T11:43:55;24.92;;;16.00;;
19149;SDS011;9707;49.158;8.632;2024-01-11T11:46:26;28.45;;;18.10;;
19149;SDS011;9707;49.158;8.632;2024-01-11T11:48:51;29.42;;;17.23;;
19149;SDS011;9707;49.158;8.632;2024-01-11T11:51:18;32.00;;;19.17;;
19149;SDS011;9707;49.158;8.632;2024-01-11T11:53:45;31.40;;;18.05;;
19149;SDS011;9707;49.158;8.632;2024-01-11T11:56:12;39.70;;;24.73;;
19149;SDS011;9707;49.158;8.632;2024-01-11T11:58:39;28.42;;;19.23;;
19149;SDS011;9707;49.158;8.632;2024-01-11T12:01:05;31.23;;;18.50;;
19149;SDS011;9707;49.158;8.632;2024-01-11T12:03:31;27.73;;;18.02;;
19149;SDS011;9707;49.158;8.632;2024-01-11T12:05:58;27.48;;;18.10;;
19149;SDS011;9707;49.158;8.632;2024-01-11T12:08:25;32.60;;;20.75;;
19149;SDS011;9707;49.158;8.632;2024-01-11T12:10:52;30.45;;;20.48;;
19149;SDS011;9707;49.158;8.632;2024-01-11T12:13:18;32.38;;;20.50;;
19149;SDS011;9707;49.158;8.632;2024-01-11T12:15:43;36.42;;;22.13;;
19149;SDS011;9707;49.158;8.632;2024-01-11T12:18:09;35.08;;;22.08;;
19149;SDS011;9707;49.158;8.632;2024-01-11T12:20:34;37.17;;;22.73;;
19149;SDS011;9707;49.158;8.632;2024-01-11T12:23:00;34.40;;;20.27;;
19149;SDS011;9707;49.158;8.632;2024-01-11T12:25:27;28.63;;;19.25;;
19149;SDS011;9707;49.158;8.632;2024-01-11T12:27:52;26.83;;;18.35;;
19149;SDS011;9707;49.158;8.632;2024-01-11T12:30:18;35.10;;;22.42;;
19149;SDS011;9707;49.158;8.632;2024-01-11T12:32:43;36.70;;;20.92;;
19149;SDS011;9707;49.158;8.632;2024-01-11T12:35:09;31.23;;;18.13;;
19149;SDS011;9707;49.158;8.632;2024-01-11T12:37:36;30.15;;;18.77;;
19149;SDS011;9707;49.158;8.632;2024-01-11T12:40:01;29.10;;;18.60;;
19149;SDS011;9707;49.158;8.632;2024-01-11T12:42:26;33.88;;;20.80;;
19149;SDS011;9707;49.158;8.632;2024-01-11T12:44:52;30.15;;;18.52;;
19149;SDS011;9707;49.158;8.632;2024-01-11T12:47:17;33.10;;;18.67;;
19149;SDS011;9707;49.158;8.632;2024-01-11T12:49:43;31.35;;;19.27;;
19149;SDS011;9707;49.158;8.632;2024-01-11T12:52:15;27.95;;;17.95;;
19149;SDS011;9707;49.158;8.632;2024-01-11T12:54:44;29.58;;;19.40;;
19149;SDS011;9707;49.158;8.632;2024-01-11T12:57:17;28.35;;;18.98;;
19149;SDS011;9707;49.158;8.632;2024-01-11T12:59:44;28.38;;;18.95;;
19149;SDS011;9707;49.158;8.632;2024-01-11T13:02:10;27.23;;;18.38;;
19149;SDS011;9707;49.158;8.632;2024-01-11T13:04:38;28.48;;;18.70;;
19149;SDS011;9707;49.158;8.632;2024-01-11T13:07:04;25.45;;;17.77;;
19149;SDS011;9707;49.158;8.632;2024-01-11T13:09:29;28.77;;;18.30;;
19149;SDS011;9707;49.158;8.632;2024-01-11T13:11:54;31.30;;;21.17;;
19149;SDS011;9707;49.158;8.632;2024-01-11T13:14:19;25.45;;;16.88;;
19149;SDS011;9707;49.158;8.632;2024-01-11T13:16:45;28.90;;;18.40;;
19149;SDS011;9707;49.158;8.632;2024-01-11T13:19:11;32.30;;;20.90;;
19149;SDS011;9707;49.158;8.632;2024-01-11T13:21:36;29.83;;;19.38;;
19149;SDS011;9707;49.158;8.632;2024-01-11T13:24:02;32.53;;;20.67;;
19149;SDS011;9707;49.158;8.632;2024-01-11T13:26:28;30.75;;;19.38;;
19149;SDS011;9707;49.158;8.632;2024-01-11T13:28:53;32.78;;;20.50;;
19149;SDS011;9707;49.158;8.632;2024-01-11T13:31:19;28.42;;;19.67;;
19149;SDS011;9707;49.158;8.632;2024-01-11T13:33:45;31.00;;;20.77;;
19149;SDS011;9707;49.158;8.632;2024-01-11T13:36:11;33.05;;;22.38;;
19149;SDS011;9707;49.158;8.632;2024-01-11T13:38:36;29.92;;;19.17;;
19149;SDS011;9707;49.158;8.632;2024-01-11T13:41:02;31.38;;;20.30;;
19149;SDS011;9707;49.158;8.632;2024-01-11T13:43:27;32.47;;;21.67;;
19149;SDS011;9707;49.158;8.632;2024-01-11T13:45:53;33.72;;;21.73;;
19149;SDS011;9707;49.158;8.632;2024-01-11T13:48:19;33.28;;;22.23;;
19149;SDS011;9707;49.158;8.632;2024-01-11T13:50:44;33.75;;;21.10;;
19149;SDS011;9707;49.158;8.632;2024-01-11T13:53:10;28.73;;;19.25;;
19149;SDS011;9707;49.158;8.632;2024-01-11T13:55:35;31.73;;;20.75;;
19149;SDS011;9707;49.158;8.632;2024-01-11T13:58:03;28.30;;;18.73;;
19149;SDS011;9707;49.158;8.632;2024-01-11T14:00:29;29.42;;;19.55;;
19149;SDS011;9707;49.158;8.632;2024-01-11T14:02:54;30.52;;;21.65;;
19149;SDS011;9707;49.158;8.632;2024-01-11T14:05:19;30.73;;;22.08;;
19149;SDS011;9707;49.158;8.632;2024-01-11T14:07:45;34.65;;;21.15;;
19149;SDS011;9707;49.158;8.632;2024-01-11T14:10:11;33.22;;;22.95;;
19149;SDS011;9707;49.158;8.632;2024-01-11T14:12:37;30.95;;;21.55;;
19149;SDS011;9707;49.158;8.632;2024-01-11T14:15:03;31.80;;;22.08;;
19149;SDS011;9707;49.158;8.632;2024-01-11T14:17:30;31.42;;;22.45;;
19149;SDS011;9707;49.158;8.632;2024-01-11T14:19:55;31.05;;;20.75;;
19149;SDS011;9707;49.158;8.632;2024-01-11T14:22:20;33.42;;;21.75;;
19149;SDS011;9707;49.158;8.632;2024-01-11T14:24:46;34.25;;;20.27;;